createdAt,value
2017-02-12T00:00:26.446Z,1006.16
2017-02-12T00:01:06.995Z,1006.18
2017-02-12T00:01:47.868Z,1006.21
2017-02-12T00:02:28.226Z,1006.25
2017-02-12T00:03:09.649Z,1006.28
2017-02-12T00:03:50.018Z,1006.29
2017-02-12T00:04:30.863Z,1006.35
2017-02-12T00:05:11.246Z,1006.38
2017-02-12T00:05:51.690Z,1006.41
2017-02-12T00:06:32.293Z,1006.51
2017-02-12T00:07:12.872Z,1006.53
2017-02-12T00:07:53.501Z,1006.63
2017-02-12T00:08:33.924Z,1006.67
2017-02-12T00:09:14.519Z,1006.68
2017-02-12T00:09:55.278Z,1006.79
2017-02-12T00:10:35.552Z,1006.84
2017-02-12T00:11:16.849Z,1006.91
2017-02-12T00:11:58.571Z,1006.97
2017-02-12T00:12:40.850Z,1007.04
2017-02-12T00:13:21.210Z,1007.1
2017-02-12T00:14:02.283Z,1007.12
2017-02-12T00:14:44.669Z,1007.12
2017-02-12T00:15:25.240Z,1007.11
2017-02-12T00:16:05.874Z,1007.17
2017-02-12T00:16:46.424Z,1007.21
2017-02-12T00:17:27.255Z,1007.22
2017-02-12T00:18:07.912Z,1007.27
2017-02-12T00:18:48.493Z,1007.29
2017-02-12T00:19:28.906Z,1007.3
2017-02-12T00:20:09.726Z,1007.32
2017-02-12T00:20:50.168Z,1007.28
2017-02-12T00:21:30.701Z,1007.32
2017-02-12T00:22:11.225Z,1007.32
2017-02-12T00:22:51.595Z,1007.31
2017-02-12T00:23:32.393Z,1007.36
2017-02-12T00:24:13.239Z,1007.39
2017-02-12T00:24:53.576Z,1007.48
2017-02-12T00:25:34.309Z,1007.45
2017-02-12T00:26:16.341Z,1007.46
2017-02-12T00:26:59.841Z,1007.51
2017-02-12T00:27:42.044Z,1007.47
2017-02-12T00:30:13.342Z,1007.43
2017-02-12T00:30:55.756Z,1007.44
2017-02-12T00:31:37.596Z,1007.41
2017-02-12T00:32:18.083Z,1007.51
2017-02-12T00:33:00.240Z,1007.48
2017-02-12T00:33:42.620Z,1007.52
2017-02-12T00:34:22.987Z,1007.54
2017-02-12T00:35:04.270Z,1007.61
2017-02-12T00:35:47.728Z,1007.52
2017-02-12T00:36:28.620Z,1007.5
2017-02-12T00:37:09.703Z,1007.54
2017-02-12T00:37:51.577Z,1007.57
2017-02-12T00:38:34.294Z,1007.51
2017-02-12T00:39:15.012Z,1007.54
2017-02-12T00:39:56.239Z,1007.57
2017-02-12T00:40:37.203Z,1007.6
2017-02-12T00:41:17.914Z,1007.62
2017-02-12T00:42:00.226Z,1007.61
2017-02-12T00:42:41.480Z,1007.61
2017-02-12T00:43:22.946Z,1007.64
2017-02-12T00:44:05.210Z,1007.66
2017-02-12T00:44:46.882Z,1007.63
2017-02-12T00:45:27.989Z,1007.66
2017-02-12T00:46:09.280Z,1007.58
2017-02-12T00:46:50.642Z,1007.56
2017-02-12T00:47:32.097Z,1007.59
2017-02-12T00:48:12.843Z,1007.56
2017-02-12T00:48:54.029Z,1007.56
2017-02-12T00:49:36.853Z,1007.56
2017-02-12T00:50:18.488Z,1007.61
2017-02-12T00:51:05.518Z,1007.62
2017-02-12T00:51:46.360Z,1007.64
2017-02-12T00:52:29.036Z,1007.63
2017-02-12T00:53:10.060Z,1007.64
2017-02-12T00:53:50.361Z,1007.66
2017-02-12T00:54:33.168Z,1007.64
2017-02-12T00:55:16.488Z,1007.61
2017-02-12T00:55:58.151Z,1007.56
2017-02-12T00:56:39.149Z,1007.54
2017-02-12T00:57:19.779Z,1007.49
2017-02-12T00:58:00.401Z,1007.51
2017-02-12T00:58:41.228Z,1007.51
2017-02-12T00:59:21.685Z,1007.52
2017-02-12T01:00:02.313Z,1007.54
2017-02-12T01:00:43.270Z,1007.58
2017-02-12T01:01:23.935Z,1007.54
2017-02-12T01:02:04.727Z,1007.59
2017-02-12T01:02:45.604Z,1007.6
2017-02-12T01:03:26.975Z,1007.59
2017-02-12T01:04:06.991Z,1007.62
2017-02-12T01:04:47.616Z,1007.61
2017-02-12T01:05:28.392Z,1007.7
2017-02-12T01:06:09.117Z,1007.69
2017-02-12T01:06:49.589Z,1007.61
2017-02-12T01:07:30.123Z,1007.66
2017-02-12T01:08:10.805Z,1007.69
2017-02-12T01:08:52.530Z,1007.6
2017-02-12T01:09:33.219Z,1007.64
2017-02-12T01:10:13.711Z,1007.68
2017-02-12T01:10:54.558Z,1007.69
2017-02-12T01:11:34.950Z,1007.65
2017-02-12T01:12:15.421Z,1007.62
2017-02-12T01:12:56.808Z,1007.6
2017-02-12T01:13:37.932Z,1007.62
2017-02-12T01:14:18.566Z,1007.62
2017-02-12T01:14:58.872Z,1007.58
2017-02-12T01:15:39.586Z,1007.54
2017-02-12T01:16:20.678Z,1007.52
2017-02-12T01:17:01.231Z,1007.47
2017-02-12T01:17:41.773Z,1007.51
2017-02-12T01:18:22.981Z,1007.51
2017-02-12T01:19:03.967Z,1007.49
2017-02-12T01:19:44.090Z,1007.49
2017-02-12T01:20:24.582Z,1007.47
2017-02-12T01:21:05.219Z,1007.4
2017-02-12T01:21:45.610Z,1007.47
2017-02-12T01:22:26.426Z,1007.48
2017-02-12T01:23:07.057Z,1007.55
2017-02-12T01:23:47.427Z,1007.59
2017-02-12T01:24:28.188Z,1007.66
2017-02-12T01:25:08.806Z,1007.72
2017-02-12T01:25:49.399Z,1007.71
2017-02-12T01:26:29.817Z,1007.68
2017-02-12T01:27:10.623Z,1007.69
2017-02-12T01:27:51.246Z,1007.68
2017-02-12T01:28:31.683Z,1007.65
2017-02-12T01:29:12.392Z,1007.66
2017-02-12T01:29:52.951Z,1007.64
2017-02-12T01:30:34.527Z,1007.64
2017-02-12T01:31:15.200Z,1007.58
2017-02-12T01:31:55.561Z,1007.57
2017-02-12T01:32:36.258Z,1007.51
2017-02-12T01:33:16.855Z,1007.54
2017-02-12T01:33:57.295Z,1007.56
2017-02-12T01:34:37.944Z,1007.62
2017-02-12T01:35:18.397Z,1007.55
2017-02-12T01:35:58.888Z,1007.56
2017-02-12T01:36:39.517Z,1007.63
2017-02-12T01:37:20.213Z,1007.64
2017-02-12T01:38:00.602Z,1007.68
2017-02-12T01:38:41.181Z,1007.63
2017-02-12T01:39:21.924Z,1007.69
2017-02-12T01:40:02.549Z,1007.68
2017-02-12T01:40:43.007Z,1007.66
2017-02-12T01:41:30.866Z,1007.68
2017-02-12T01:42:15.403Z,1007.66
2017-02-12T01:44:10.043Z,1007.57
2017-02-12T01:44:50.535Z,1007.58
2017-02-12T01:45:31.284Z,1007.58
2017-02-12T01:46:12.525Z,1007.61
2017-02-12T01:46:53.202Z,1007.65
2017-02-12T01:47:33.717Z,1007.71
2017-02-12T01:48:14.199Z,1007.7
2017-02-12T01:48:54.709Z,1007.68
2017-02-12T01:49:35.591Z,1007.72
2017-02-12T01:50:16.043Z,1007.69
2017-02-12T01:50:56.506Z,1007.72
2017-02-12T01:51:37.317Z,1007.75
2017-02-12T01:52:18.251Z,1007.73
2017-02-12T01:52:58.948Z,1007.7
2017-02-12T01:53:39.423Z,1007.71
2017-02-12T01:54:20.171Z,1007.68
2017-02-12T01:55:01.190Z,1007.73
2017-02-12T01:55:41.918Z,1007.66
2017-02-12T01:56:23.574Z,1007.62
2017-02-12T01:57:04.396Z,1007.62
2017-02-12T01:57:48.028Z,1007.62
2017-02-12T01:58:27.986Z,1007.52
2017-02-12T01:59:08.682Z,1007.55
2017-02-12T01:59:50.995Z,1007.51
2017-02-12T02:00:31.127Z,1007.54
2017-02-12T02:01:11.943Z,1007.53
2017-02-12T02:01:52.476Z,1007.53
2017-02-12T02:02:33.397Z,1007.54
2017-02-12T02:03:15.199Z,1007.55
2017-02-12T02:03:55.821Z,1007.53
2017-02-12T02:04:36.376Z,1007.53
2017-02-12T02:05:17.309Z,1007.54
2017-02-12T02:05:59.592Z,1007.55
2017-02-12T02:06:40.411Z,1007.54
2017-02-12T02:07:20.924Z,1007.55
2017-02-12T02:08:01.457Z,1007.56
2017-02-12T02:08:42.020Z,1007.58
2017-02-12T02:09:22.798Z,1007.62
2017-02-12T02:10:04.934Z,1007.68
2017-02-12T02:10:45.346Z,1007.64
2017-02-12T02:11:26.175Z,1007.66
2017-02-12T02:12:06.860Z,1007.72
2017-02-12T02:12:47.450Z,1007.73
2017-02-12T02:13:30.177Z,1007.75
2017-02-12T02:14:11.314Z,1007.8
2017-02-12T02:14:51.325Z,1007.83
2017-02-12T02:15:32.119Z,1007.85
2017-02-12T02:16:12.595Z,1007.89
2017-02-12T02:16:53.131Z,1007.86
2017-02-12T02:17:35.418Z,1007.91
2017-02-12T02:18:16.116Z,1007.94
2017-02-12T02:18:56.786Z,1007.89
2017-02-12T02:19:37.023Z,1007.9
2017-02-12T02:20:17.678Z,1007.95
2017-02-12T02:20:58.243Z,1007.96
2017-02-12T02:21:39.786Z,1007.98
2017-02-12T02:22:20.385Z,1008.08
2017-02-12T02:23:01.152Z,1008.06
2017-02-12T02:23:41.614Z,1008.06
2017-02-12T02:24:22.514Z,1008.08
2017-02-12T02:25:03.632Z,1008.11
2017-02-12T02:25:45.329Z,1008.06
2017-02-12T02:26:25.941Z,1008.12
2017-02-12T02:27:06.686Z,1008.15
2017-02-12T02:27:47.440Z,1008.14
2017-02-12T02:28:28.822Z,1008.09
2017-02-12T02:29:09.994Z,1008.06
2017-02-12T02:29:50.887Z,1008.09
2017-02-12T02:30:31.426Z,1008.09
2017-02-12T02:31:11.957Z,1008.13
2017-02-12T02:31:52.705Z,1008.24
2017-02-12T02:32:33.280Z,1008.25
2017-02-12T02:33:14.845Z,1008.26
2017-02-12T02:33:55.917Z,1008.22
2017-02-12T02:34:36.259Z,1008.22
2017-02-12T02:35:16.832Z,1008.26
2017-02-12T02:35:57.486Z,1008.27
2017-02-12T02:36:38.188Z,1008.3
2017-02-12T02:37:19.605Z,1008.35
2017-02-12T02:38:00.653Z,1008.33
2017-02-12T02:38:41.169Z,1008.37
2017-02-12T02:39:21.577Z,1008.34
2017-02-12T02:40:02.044Z,1008.23
2017-02-12T02:40:42.819Z,1008.25
2017-02-12T02:41:23.391Z,1008.36
2017-02-12T02:42:05.734Z,1008.35
2017-02-12T02:42:46.540Z,1008.31
2017-02-12T02:43:27.147Z,1008.31
2017-02-12T02:44:07.691Z,1008.33
2017-02-12T02:44:49.674Z,1008.27
2017-02-12T02:45:31.594Z,1008.31
2017-02-12T02:46:12.165Z,1008.32
2017-02-12T02:46:52.576Z,1008.29
2017-02-12T02:48:26.111Z,1008.32
2017-02-12T02:49:06.791Z,1008.3
2017-02-12T02:49:47.338Z,1008.3
2017-02-12T02:50:27.704Z,1008.25
2017-02-12T02:51:08.358Z,1008.3
2017-02-12T02:51:51.669Z,1008.23
2017-02-12T02:52:32.058Z,1008.25
2017-02-12T02:53:12.738Z,1008.2
2017-02-12T02:53:53.072Z,1008.25
2017-02-12T02:55:17.236Z,1008.18
2017-02-12T02:55:57.909Z,1008.19
2017-02-12T02:56:38.473Z,1008.14
2017-02-12T02:57:21.724Z,1008.11
2017-02-12T02:58:02.444Z,1008.16
2017-02-12T02:58:42.768Z,1008.08
2017-02-12T02:59:23.223Z,1008.1
2017-02-12T03:00:07.760Z,1008.06
2017-02-12T03:00:48.199Z,1008.08
2017-02-12T03:01:28.768Z,1008.07
2017-02-12T03:02:11.929Z,1008.12
2017-02-12T03:02:52.553Z,1008.03
2017-02-12T03:03:33.227Z,1008.04
2017-02-12T03:04:13.642Z,1008
2017-02-12T03:04:56.443Z,1008.01
2017-02-12T03:05:37.965Z,1007.95
2017-02-12T03:06:18.484Z,1007.93
2017-02-12T03:06:59.347Z,1007.93
2017-02-12T03:07:40.026Z,1007.93
2017-02-12T03:09:42.027Z,1007.95
2017-02-12T03:10:22.597Z,1007.88
2017-02-12T03:11:03.300Z,1007.92
2017-02-12T03:11:43.642Z,1007.96
2017-02-12T03:12:24.115Z,1007.95
2017-02-12T03:13:04.954Z,1007.93
2017-02-12T03:13:47.084Z,1007.99
2017-02-12T03:14:27.894Z,1008
2017-02-12T03:15:08.536Z,1008.01
2017-02-12T03:15:49.477Z,1008.04
2017-02-12T03:16:32.372Z,1008.09
2017-02-12T03:17:13.219Z,1008.12
2017-02-12T03:17:53.564Z,1008.09
2017-02-12T03:18:34.020Z,1008.13
2017-02-12T03:19:14.707Z,1008.14
2017-02-12T03:19:57.402Z,1008.1
2017-02-12T03:20:37.890Z,1008.11
2017-02-12T03:21:18.481Z,1008.11
2017-02-12T03:21:58.851Z,1008.04
2017-02-12T03:22:39.436Z,1008.05
2017-02-12T03:23:19.850Z,1008
2017-02-12T03:24:02.136Z,1007.99
2017-02-12T03:24:42.953Z,1008.01
2017-02-12T03:25:23.395Z,1007.96
2017-02-12T03:26:03.789Z,1007.94
2017-02-12T03:26:47.699Z,1007.92
2017-02-12T03:27:28.236Z,1007.92
2017-02-12T03:31:07.767Z,1007.91
2017-02-12T03:31:50.217Z,1007.91
2017-02-12T03:32:30.526Z,1007.98
2017-02-12T03:33:11.080Z,1007.98
2017-02-12T03:33:51.531Z,1007.99
2017-02-12T03:34:32.331Z,1008.06
2017-02-12T03:35:12.920Z,1008.07
2017-02-12T03:35:53.713Z,1008.16
2017-02-12T03:37:55.527Z,1008.26
2017-02-12T03:38:36.500Z,1008.19
2017-02-12T03:39:16.899Z,1008.2
2017-02-12T03:39:57.606Z,1008.23
2017-02-12T03:40:37.906Z,1008.24
2017-02-12T03:41:21.699Z,1008.28
2017-02-12T03:42:00.797Z,1008.27
2017-02-12T03:42:41.303Z,1008.31
2017-02-12T03:43:21.817Z,1008.29
2017-02-12T03:44:02.351Z,1008.29
2017-02-12T03:44:43.162Z,1008.35
2017-02-12T03:45:23.652Z,1008.38
2017-02-12T03:46:05.580Z,1008.41
2017-02-12T03:46:46.522Z,1008.48
2017-02-12T03:47:26.994Z,1008.54
2017-02-12T03:48:07.549Z,1008.51
2017-02-12T03:48:48.066Z,1008.5
2017-02-12T03:49:28.756Z,1008.54
2017-02-12T03:50:11.103Z,1008.5
2017-02-12T03:50:52.634Z,1008.53
2017-02-12T03:51:33.861Z,1008.49
2017-02-12T03:52:14.309Z,1008.53
2017-02-12T03:52:55.612Z,1008.5
2017-02-12T03:53:36.114Z,1008.44
2017-02-12T03:54:17.369Z,1008.39
2017-02-12T03:54:58.617Z,1008.41
2017-02-12T03:55:39.060Z,1008.43
2017-02-12T03:56:19.683Z,1008.47
2017-02-12T03:57:00.514Z,1008.52
2017-02-12T03:57:41.018Z,1008.5
2017-02-12T03:58:21.545Z,1008.45
2017-02-12T03:59:02.637Z,1008.39
2017-02-12T03:59:43.368Z,1008.36
2017-02-12T04:00:23.879Z,1008.32
2017-02-12T04:01:04.642Z,1008.27
2017-02-12T04:01:45.764Z,1008.26
2017-02-12T04:02:27.625Z,1008.2
2017-02-12T04:03:08.173Z,1008.25
2017-02-12T04:03:48.712Z,1008.2
2017-02-12T04:04:30.494Z,1008.29
2017-02-12T04:05:11.511Z,1008.34
2017-02-12T04:05:52.065Z,1008.38
2017-02-12T04:06:32.608Z,1008.41
2017-02-12T04:07:13.407Z,1008.45
2017-02-12T04:07:54.009Z,1008.58
2017-02-12T04:08:34.763Z,1008.61
2017-02-12T04:09:16.215Z,1008.66
2017-02-12T04:09:59.078Z,1008.61
2017-02-12T04:10:38.633Z,1008.56
2017-02-12T04:11:19.134Z,1008.49
2017-02-12T04:11:59.938Z,1008.47
2017-02-12T04:12:41.945Z,1008.47
2017-02-12T04:13:23.367Z,1008.47
2017-02-12T04:14:04.465Z,1008.53
2017-02-12T04:14:45.046Z,1008.48
2017-02-12T04:15:25.593Z,1008.59
2017-02-12T04:16:06.206Z,1008.55
2017-02-12T04:16:46.990Z,1008.59
2017-02-12T04:17:27.523Z,1008.58
2017-02-12T04:18:08.268Z,1008.63
2017-02-12T04:18:49.696Z,1008.71
2017-02-12T04:19:30.254Z,1008.8
2017-02-12T04:20:10.892Z,1008.79
2017-02-12T04:20:51.590Z,1008.78
2017-02-12T04:21:32.049Z,1008.78
2017-02-12T04:22:12.451Z,1008.77
2017-02-12T04:22:53.058Z,1008.71
2017-02-12T04:23:33.512Z,1008.68
2017-02-12T04:24:14.471Z,1008.72
2017-02-12T04:24:54.866Z,1008.73
2017-02-12T04:25:35.398Z,1008.76
2017-02-12T04:26:16.310Z,1008.72
2017-02-12T04:26:56.907Z,1008.73
2017-02-12T04:27:37.455Z,1008.77
2017-02-12T04:28:18.468Z,1008.77
2017-02-12T04:28:58.955Z,1008.72
2017-02-12T04:29:39.360Z,1008.69
2017-02-12T04:30:20.055Z,1008.71
2017-02-12T04:31:00.639Z,1008.75
2017-02-12T04:31:41.098Z,1008.65
2017-02-12T04:32:21.621Z,1008.7
2017-02-12T04:33:02.172Z,1008.66
2017-02-12T04:33:42.923Z,1008.66
2017-02-12T04:34:23.543Z,1008.69
2017-02-12T04:35:04.341Z,1008.66
2017-02-12T04:35:44.901Z,1008.7
2017-02-12T04:36:25.972Z,1008.63
2017-02-12T04:37:06.616Z,1008.61
2017-02-12T04:37:47.993Z,1008.6
2017-02-12T04:38:28.822Z,1008.51
2017-02-12T04:39:09.196Z,1008.57
2017-02-12T04:39:49.748Z,1008.55
2017-02-12T04:40:30.365Z,1008.65
2017-02-12T04:41:10.985Z,1008.62
2017-02-12T04:41:51.359Z,1008.7
2017-02-12T04:42:32.364Z,1008.67
2017-02-12T04:43:13.223Z,1008.76
2017-02-12T04:43:54.221Z,1008.75
2017-02-12T04:44:34.769Z,1008.79
2017-02-12T04:45:15.315Z,1008.77
2017-02-12T04:45:55.684Z,1008.77
2017-02-12T04:46:36.525Z,1008.77
2017-02-12T04:47:16.952Z,1008.77
2017-02-12T04:47:57.829Z,1008.72
2017-02-12T04:48:38.658Z,1008.72
2017-02-12T04:49:19.242Z,1008.77
2017-02-12T04:49:59.748Z,1008.76
2017-02-12T04:50:40.563Z,1008.74
2017-02-12T04:51:20.961Z,1008.72
2017-02-12T04:52:01.572Z,1008.75
2017-02-12T04:52:42.130Z,1008.77
2017-02-12T04:53:22.569Z,1008.8
2017-02-12T04:54:03.261Z,1008.83
2017-02-12T04:54:43.767Z,1008.85
2017-02-12T04:55:24.447Z,1008.84
2017-02-12T04:56:04.956Z,1008.76
2017-02-12T04:56:45.456Z,1008.82
2017-02-12T04:57:26.054Z,1008.79
2017-02-12T04:58:06.497Z,1008.8
2017-02-12T04:58:47.004Z,1008.77
2017-02-12T04:59:27.431Z,1008.83
2017-02-12T05:00:08.094Z,1008.82
2017-02-12T05:00:48.700Z,1008.9
2017-02-12T05:01:29.331Z,1008.86
2017-02-12T05:02:09.764Z,1008.92
2017-02-12T05:02:50.187Z,1008.86
2017-02-12T05:03:30.719Z,1008.79
2017-02-12T05:04:11.252Z,1008.73
2017-02-12T05:04:51.791Z,1008.76
2017-02-12T05:05:32.222Z,1008.85
2017-02-12T05:06:12.761Z,1008.87
2017-02-12T05:06:53.302Z,1008.93
2017-02-12T05:07:33.837Z,1008.91
2017-02-12T05:08:14.546Z,1008.93
2017-02-12T05:08:55.322Z,1008.84
2017-02-12T05:09:36.042Z,1008.83
2017-02-12T05:10:16.541Z,1008.81
2017-02-12T05:10:57.076Z,1008.84
2017-02-12T05:11:37.896Z,1008.9
2017-02-12T05:12:18.601Z,1008.91
2017-02-12T05:12:58.977Z,1008.94
2017-02-12T05:13:39.575Z,1008.9
2017-02-12T05:14:20.165Z,1008.87
2017-02-12T05:15:00.675Z,1008.84
2017-02-12T05:15:41.295Z,1008.91
2017-02-12T05:16:21.920Z,1008.88
2017-02-12T05:17:02.621Z,1008.91
2017-02-12T05:17:43.304Z,1008.97
2017-02-12T05:18:23.766Z,1009
2017-02-12T05:19:04.411Z,1009.01
2017-02-12T05:19:44.934Z,1009.04
2017-02-12T05:20:26.294Z,1009.06
2017-02-12T05:21:06.688Z,1009.1
2017-02-12T05:21:47.342Z,1009.08
2017-02-12T05:22:27.915Z,1009.07
2017-02-12T05:23:08.474Z,1009.19
2017-02-12T05:23:48.870Z,1009.14
2017-02-12T05:24:29.361Z,1009.15
2017-02-12T05:25:09.856Z,1009.06
2017-02-12T05:25:50.316Z,1009.11
2017-02-12T05:26:30.902Z,1009.14
2017-02-12T05:27:11.373Z,1009.11
2017-02-12T05:27:51.928Z,1009.03
2017-02-12T05:28:32.781Z,1009.06
2017-02-12T05:29:13.275Z,1009.09
2017-02-12T05:29:54.618Z,1009.05
2017-02-12T05:30:34.592Z,1009.03
2017-02-12T05:31:15.182Z,1009.06
2017-02-12T05:31:55.859Z,1009.04
2017-02-12T05:32:36.393Z,1009.04
2017-02-12T05:33:17.207Z,1009.05
2017-02-12T05:33:58.007Z,1009.03
2017-02-12T05:34:38.427Z,1009.06
2017-02-12T05:35:19.124Z,1008.99
2017-02-12T05:35:59.417Z,1009
2017-02-12T05:36:40.051Z,1008.95
2017-02-12T05:37:20.507Z,1008.98
2017-02-12T05:38:01.078Z,1008.96
2017-02-12T05:38:41.678Z,1008.88
2017-02-12T05:39:22.206Z,1008.93
2017-02-12T05:40:02.644Z,1008.86
2017-02-12T05:40:43.328Z,1008.82
2017-02-12T05:41:24.022Z,1008.81
2017-02-12T05:42:04.498Z,1008.91
2017-02-12T05:42:45.031Z,1009.06
2017-02-12T05:43:25.516Z,1009.27
2017-02-12T05:44:06.089Z,1009.32
2017-02-12T05:44:46.745Z,1009.42
2017-02-12T05:45:27.319Z,1009.39
2017-02-12T05:46:07.917Z,1009.36
2017-02-12T05:46:48.542Z,1009.28
2017-02-12T05:47:29.003Z,1009.25
2017-02-12T05:48:10.531Z,1009.26
2017-02-12T05:48:51.050Z,1009.23
2017-02-12T05:49:31.557Z,1009.33
2017-02-12T05:50:12.093Z,1009.44
2017-02-12T05:50:52.610Z,1009.5
2017-02-12T05:51:33.361Z,1009.51
2017-02-12T05:52:13.918Z,1009.53
2017-02-12T05:52:54.301Z,1009.56
2017-02-12T05:53:35.013Z,1009.6
2017-02-12T05:54:15.441Z,1009.54
2017-02-12T05:54:55.968Z,1009.51
2017-02-12T05:55:36.433Z,1009.43
2017-02-12T05:56:16.914Z,1009.42
2017-02-12T05:56:57.369Z,1009.52
2017-02-12T05:57:38.189Z,1009.59
2017-02-12T05:58:18.565Z,1009.57
2017-02-12T05:58:59.046Z,1009.56
2017-02-12T05:59:39.683Z,1009.47
2017-02-12T06:00:20.135Z,1009.43
2017-02-12T06:01:00.896Z,1009.45
2017-02-12T06:01:41.765Z,1009.46
2017-02-12T06:02:22.272Z,1009.47
2017-02-12T06:03:02.865Z,1009.51
2017-02-12T06:03:43.203Z,1009.48
2017-02-12T06:04:23.805Z,1009.47
2017-02-12T06:05:04.287Z,1009.45
2017-02-12T06:05:44.852Z,1009.54
2017-02-12T06:06:25.324Z,1009.48
2017-02-12T06:07:05.928Z,1009.48
2017-02-12T06:07:46.710Z,1009.43
2017-02-12T06:08:27.012Z,1009.46
2017-02-12T06:09:07.613Z,1009.36
2017-02-12T06:09:48.141Z,1009.37
2017-02-12T06:10:28.606Z,1009.34
2017-02-12T06:11:09.392Z,1009.35
2017-02-12T06:11:50.015Z,1009.37
2017-02-12T06:12:30.402Z,1009.4
2017-02-12T06:13:11.398Z,1009.34
2017-02-12T06:13:52.232Z,1009.35
2017-02-12T06:14:32.550Z,1009.37
2017-02-12T06:15:13.522Z,1009.4
2017-02-12T06:15:54.086Z,1009.3
2017-02-12T06:16:34.627Z,1009.33
2017-02-12T06:17:15.334Z,1009.35
2017-02-12T06:17:55.887Z,1009.32
2017-02-12T06:18:36.534Z,1009.3
2017-02-12T06:19:17.021Z,1009.37
2017-02-12T06:19:57.780Z,1009.39
2017-02-12T06:20:38.507Z,1009.34
2017-02-12T06:21:18.995Z,1009.45
2017-02-12T06:21:59.594Z,1009.37
2017-02-12T06:22:40.159Z,1009.39
2017-02-12T06:23:20.599Z,1009.39
2017-02-12T06:24:01.059Z,1009.44
2017-02-12T06:24:41.589Z,1009.39
2017-02-12T06:25:22.060Z,1009.44
2017-02-12T06:26:02.704Z,1009.47
2017-02-12T06:26:43.180Z,1009.46
2017-02-12T06:27:23.627Z,1009.55
2017-02-12T06:28:04.476Z,1009.5
2017-02-12T06:28:44.808Z,1009.49
2017-02-12T06:29:25.317Z,1009.54
2017-02-12T06:30:05.830Z,1009.58
2017-02-12T06:30:46.435Z,1009.58
2017-02-12T06:31:26.863Z,1009.65
2017-02-12T06:32:07.334Z,1009.66
2017-02-12T06:32:47.957Z,1009.58
2017-02-12T06:33:28.493Z,1009.62
2017-02-12T06:34:08.949Z,1009.61
2017-02-12T06:34:49.379Z,1009.57
2017-02-12T06:35:29.938Z,1009.56
2017-02-12T06:36:10.617Z,1009.6
2017-02-12T06:36:50.982Z,1009.54
2017-02-12T06:37:31.486Z,1009.68
2017-02-12T06:38:12.052Z,1009.63
2017-02-12T06:38:52.542Z,1009.6
2017-02-12T06:39:32.985Z,1009.66
2017-02-12T06:40:13.496Z,1009.64
2017-02-12T06:40:54.292Z,1009.63
2017-02-12T06:41:34.790Z,1009.63
2017-02-12T06:42:15.263Z,1009.59
2017-02-12T06:42:55.892Z,1009.64
2017-02-12T06:43:36.391Z,1009.63
2017-02-12T06:44:16.885Z,1009.63
2017-02-12T06:44:57.609Z,1009.64
2017-02-12T06:45:38.211Z,1009.66
2017-02-12T06:46:18.646Z,1009.64
2017-02-12T06:46:59.277Z,1009.73
2017-02-12T06:47:39.842Z,1009.77
2017-02-12T06:48:20.482Z,1009.76
2017-02-12T06:49:00.832Z,1009.79
2017-02-12T06:49:41.304Z,1009.95
2017-02-12T06:50:21.765Z,1009.95
2017-02-12T06:51:02.358Z,1009.94
2017-02-12T06:51:42.742Z,1009.92
2017-02-12T06:52:23.299Z,1009.87
2017-02-12T06:53:03.782Z,1009.92
2017-02-12T06:53:44.256Z,1009.9
2017-02-12T06:54:24.882Z,1009.96
2017-02-12T06:55:05.572Z,1009.99
2017-02-12T06:55:46.013Z,1009.93
2017-02-12T06:56:26.545Z,1009.99
2017-02-12T06:57:06.960Z,1009.97
2017-02-12T06:57:47.475Z,1009.99
2017-02-12T06:58:27.888Z,1009.93
2017-02-12T06:59:08.455Z,1009.98
2017-02-12T06:59:48.923Z,1009.92
2017-02-12T07:00:29.503Z,1009.9
2017-02-12T07:01:09.981Z,1009.85
2017-02-12T07:01:50.777Z,1009.88
2017-02-12T07:02:31.193Z,1009.87
2017-02-12T07:03:11.717Z,1009.89
2017-02-12T07:03:52.220Z,1009.87
2017-02-12T07:04:32.765Z,1009.92
2017-02-12T07:05:13.293Z,1009.92
2017-02-12T07:05:53.735Z,1009.98
2017-02-12T07:06:34.214Z,1009.97
2017-02-12T07:07:14.785Z,1009.96
2017-02-12T07:07:55.626Z,1010
2017-02-12T07:08:36.178Z,1009.98
2017-02-12T07:09:16.645Z,1009.97
2017-02-12T07:09:57.224Z,1010.02
2017-02-12T07:10:38.258Z,1010.02
2017-02-12T07:11:18.888Z,1010.11
2017-02-12T07:11:59.558Z,1010.11
2017-02-12T07:12:40.496Z,1010.13
2017-02-12T07:13:21.075Z,1010.04
2017-02-12T07:14:01.674Z,1010.03
2017-02-12T07:14:42.141Z,1010.08
2017-02-12T07:15:22.670Z,1010.08
2017-02-12T07:16:03.296Z,1010.09
2017-02-12T07:16:43.833Z,1010.13
2017-02-12T07:17:24.334Z,1010.09
2017-02-12T07:18:04.918Z,1010.17
2017-02-12T07:18:51.247Z,1010.15
2017-02-12T07:19:32.197Z,1010.21
2017-02-12T07:22:01.197Z,1010.21
2017-02-12T07:22:41.905Z,1010.25
2017-02-12T07:23:22.252Z,1010.18
2017-02-12T07:24:03.021Z,1010.22
2017-02-12T07:24:43.661Z,1010.19
2017-02-12T07:25:24.066Z,1010.15
2017-02-12T07:26:04.673Z,1010.2
2017-02-12T07:26:45.207Z,1010.25
2017-02-12T07:27:25.677Z,1010.28
2017-02-12T07:28:06.591Z,1010.32
2017-02-12T07:28:47.039Z,1010.33
2017-02-12T07:29:27.689Z,1010.32
2017-02-12T07:30:08.458Z,1010.36
2017-02-12T07:30:49.197Z,1010.36
2017-02-12T07:31:29.925Z,1010.36
2017-02-12T07:32:10.550Z,1010.41
2017-02-12T07:32:51.038Z,1010.41
2017-02-12T07:33:31.589Z,1010.48
2017-02-12T07:34:12.253Z,1010.54
2017-02-12T07:34:52.751Z,1010.46
2017-02-12T07:35:33.296Z,1010.51
2017-02-12T07:36:13.819Z,1010.53
2017-02-12T07:36:54.451Z,1010.53
2017-02-12T07:37:35.151Z,1010.52
2017-02-12T07:38:15.614Z,1010.51
2017-02-12T07:38:56.138Z,1010.52
2017-02-12T07:39:36.783Z,1010.53
2017-02-12T07:40:17.984Z,1010.6
2017-02-12T07:40:58.716Z,1010.55
2017-02-12T07:41:41.051Z,1010.54
2017-02-12T07:42:22.079Z,1010.55
2017-02-12T07:43:02.116Z,1010.57
2017-02-12T07:43:43.217Z,1010.64
2017-02-12T07:44:26.586Z,1010.6
2017-02-12T07:45:08.671Z,1010.56
2017-02-12T07:45:49.222Z,1010.56
2017-02-12T07:46:29.683Z,1010.53
2017-02-12T07:47:10.388Z,1010.5
2017-02-12T07:47:50.950Z,1010.51
2017-02-12T07:48:31.737Z,1010.53
2017-02-12T07:49:14.084Z,1010.51
2017-02-12T07:49:54.627Z,1010.55
2017-02-12T07:50:35.343Z,1010.53
2017-02-12T07:51:15.787Z,1010.56
2017-02-12T07:51:56.355Z,1010.56
2017-02-12T07:52:36.777Z,1010.6
2017-02-12T07:53:17.248Z,1010.53
2017-02-12T07:53:57.731Z,1010.59
2017-02-12T07:54:38.250Z,1010.58
2017-02-12T07:55:18.720Z,1010.6
2017-02-12T07:55:59.260Z,1010.63
2017-02-12T07:56:39.723Z,1010.64
2017-02-12T07:57:20.201Z,1010.55
2017-02-12T07:58:00.693Z,1010.57
2017-02-12T07:58:41.197Z,1010.5
2017-02-12T07:59:21.920Z,1010.57
2017-02-12T08:00:02.542Z,1010.52
2017-02-12T08:00:43.087Z,1010.54
2017-02-12T08:01:23.684Z,1010.63
2017-02-12T08:02:04.451Z,1010.59
2017-02-12T08:02:44.895Z,1010.56
2017-02-12T08:03:25.363Z,1010.54
2017-02-12T08:04:05.835Z,1010.56
2017-02-12T08:04:46.346Z,1010.53
2017-02-12T08:05:26.835Z,1010.47
2017-02-12T08:06:07.318Z,1010.49
2017-02-12T08:06:47.830Z,1010.45
2017-02-12T08:07:28.355Z,1010.52
2017-02-12T08:08:08.893Z,1010.45
2017-02-12T08:08:49.371Z,1010.42
2017-02-12T08:09:29.846Z,1010.43
2017-02-12T08:10:10.439Z,1010.52
2017-02-12T08:10:50.857Z,1010.54
2017-02-12T08:11:31.402Z,1010.57
2017-02-12T08:12:11.943Z,1010.5
2017-02-12T08:12:52.517Z,1010.5
2017-02-12T08:13:33.122Z,1010.46
2017-02-12T08:14:13.603Z,1010.52
2017-02-12T08:14:54.142Z,1010.57
2017-02-12T08:15:34.638Z,1010.54
2017-02-12T08:16:15.182Z,1010.54
2017-02-12T08:16:55.608Z,1010.62
2017-02-12T08:17:36.128Z,1010.55
2017-02-12T08:18:16.659Z,1010.54
2017-02-12T08:18:57.133Z,1010.67
2017-02-12T08:19:37.584Z,1010.65
2017-02-12T08:20:18.389Z,1010.67
2017-02-12T08:20:58.879Z,1010.77
2017-02-12T08:21:39.385Z,1010.83
2017-02-12T08:22:19.888Z,1010.85
2017-02-12T08:23:00.379Z,1010.92
2017-02-12T08:23:40.897Z,1011.04
2017-02-12T08:24:21.357Z,1011.02
2017-02-12T08:25:01.906Z,1011.09
2017-02-12T08:25:42.384Z,1011.1
2017-02-12T08:26:22.895Z,1011.2
2017-02-12T08:27:03.330Z,1011.19
2017-02-12T08:27:43.833Z,1011.21